createdAt,value
2022-09-16T00:00:48.473Z,15.10
2022-09-16T00:01:50.516Z,15.00
2022-09-16T00:02:53.866Z,15.10
2022-09-16T00:03:56.771Z,15.00
2022-09-16T00:04:59.992Z,15.00
2022-09-16T00:06:03.515Z,14.90
2022-09-16T00:07:06.478Z,15.00
2022-09-16T00:08:08.437Z,14.90
2022-09-16T00:09:11.473Z,14.90
2022-09-16T00:10:14.051Z,15.00
2022-09-16T00:11:17.687Z,14.90
2022-09-16T00:12:19.630Z,14.80
2022-09-16T00:13:22.563Z,14.90
2022-09-16T00:14:24.479Z,14.90
2022-09-16T00:15:27.409Z,14.80
2022-09-16T00:16:29.897Z,14.80
2022-09-16T00:17:34.598Z,14.80
2022-09-16T00:18:36.591Z,14.80
2022-09-16T00:19:39.523Z,14.90
2022-09-16T00:20:45.512Z,14.90
2022-09-16T00:21:50.184Z,14.90
2022-09-16T00:22:52.107Z,14.90
2022-09-16T00:23:56.198Z,14.90
2022-09-16T00:24:58.124Z,14.90
2022-09-16T00:26:02.048Z,14.90
2022-09-16T00:27:04.247Z,14.90
2022-09-16T00:28:07.181Z,14.90
2022-09-16T00:29:09.677Z,14.80
2022-09-16T00:30:13.056Z,15.70
2022-09-16T00:31:15.311Z,14.70
2022-09-16T00:32:18.279Z,14.80
2022-09-16T00:33:20.622Z,14.80
2022-09-16T00:34:23.835Z,14.80
2022-09-16T00:35:25.887Z,14.70
2022-09-16T00:36:30.305Z,14.70
2022-09-16T00:37:34.128Z,14.70
2022-09-16T00:38:37.224Z,14.70
2022-09-16T00:39:40.166Z,14.70
2022-09-16T00:40:45.969Z,14.70
2022-09-16T00:41:48.906Z,14.70
2022-09-16T00:42:50.824Z,14.80
2022-09-16T00:43:56.886Z,14.80
2022-09-16T00:45:02.099Z,14.80
2022-09-16T00:46:06.304Z,14.80
2022-09-16T00:47:08.333Z,14.80
2022-09-16T00:48:16.134Z,14.80
2022-09-16T00:49:22.228Z,14.80
2022-09-16T00:50:32.396Z,14.80
2022-09-16T00:51:34.581Z,14.80
2022-09-16T00:52:39.838Z,14.80
2022-09-16T00:53:45.806Z,14.80
2022-09-16T00:54:48.812Z,14.70
2022-09-16T00:55:53.113Z,14.70
2022-09-16T00:56:58.791Z,14.70
2022-09-16T00:58:07.504Z,14.80
2022-09-16T00:59:15.124Z,14.80
2022-09-16T01:00:17.786Z,14.80
2022-09-16T01:01:22.100Z,14.80
2022-09-16T01:02:24.913Z,14.90
2022-09-16T01:03:30.940Z,14.90
2022-09-16T01:04:39.481Z,15.00
2022-09-16T01:05:43.714Z,15.00
2022-09-16T01:06:46.142Z,15.00
2022-09-16T01:07:52.923Z,15.00
2022-09-16T01:08:56.834Z,14.90
2022-09-16T01:10:00.065Z,14.90
2022-09-16T01:11:02.135Z,14.90
2022-09-16T01:12:05.302Z,15.00
2022-09-16T01:13:10.328Z,15.00
2022-09-16T01:14:32.193Z,15.10
2022-09-16T01:15:42.215Z,15.00
2022-09-16T01:16:50.247Z,15.00
2022-09-16T01:18:14.817Z,14.90
2022-09-16T01:19:41.029Z,14.90
2022-09-16T01:21:12.754Z,14.90
2022-09-16T01:22:30.182Z,15.00
2022-09-16T01:24:04.149Z,15.00
2022-09-16T01:25:21.948Z,15.00
2022-09-16T01:26:57.702Z,15.00
2022-09-16T01:28:30.362Z,15.00
2022-09-16T01:30:06.557Z,15.10
2022-09-16T01:31:16.441Z,15.10
2022-09-16T01:32:27.625Z,15.10
2022-09-16T01:33:41.344Z,15.10
2022-09-16T01:34:50.872Z,15.10
2022-09-16T01:36:07.247Z,15.10
2022-09-16T01:37:15.328Z,15.10
2022-09-16T01:38:35.324Z,15.00
2022-09-16T01:39:44.095Z,15.00
2022-09-16T01:40:54.264Z,15.10
2022-09-16T01:42:15.976Z,15.10
2022-09-16T01:43:22.465Z,15.10
2022-09-16T01:44:32.576Z,15.10
2022-09-16T01:45:39.714Z,15.10
2022-09-16T01:46:47.778Z,15.10
2022-09-16T01:47:56.767Z,15.10
2022-09-16T01:49:02.711Z,15.10
2022-09-16T01:50:13.707Z,15.10
2022-09-16T01:51:21.517Z,15.10
2022-09-16T01:52:30.333Z,15.10
2022-09-16T01:53:37.370Z,15.10
2022-09-16T01:54:44.090Z,15.10
2022-09-16T01:55:51.338Z,15.20
2022-09-16T01:57:01.782Z,15.10
2022-09-16T01:58:09.624Z,15.10
2022-09-16T01:59:19.091Z,15.10
2022-09-16T02:00:21.717Z,15.10
2022-09-16T02:01:32.338Z,15.00
2022-09-16T02:02:39.465Z,15.10
2022-09-16T02:03:46.974Z,15.00
2022-09-16T02:04:54.138Z,15.10
2022-09-16T02:06:00.650Z,15.10
2022-09-16T02:07:05.807Z,15.10
2022-09-16T02:08:12.840Z,15.10
2022-09-16T02:09:19.894Z,15.10
2022-09-16T02:10:25.821Z,15.10
2022-09-16T02:11:27.821Z,15.10
2022-09-16T02:12:34.861Z,15.20
2022-09-16T02:13:42.145Z,15.20
2022-09-16T02:14:46.005Z,15.20
2022-09-16T02:15:53.189Z,15.30
2022-09-16T02:16:59.318Z,15.20
2022-09-16T02:18:07.593Z,15.20
2022-09-16T02:19:13.717Z,15.20
2022-09-16T02:20:22.367Z,15.20
2022-09-16T02:21:27.624Z,15.20
2022-09-16T02:22:33.890Z,15.20
2022-09-16T02:23:40.901Z,15.20
2022-09-16T02:24:46.502Z,15.20
2022-09-16T02:25:50.182Z,15.20
2022-09-16T02:26:56.808Z,15.30
2022-09-16T02:28:01.356Z,15.20
2022-09-16T02:29:09.737Z,15.10
2022-09-16T02:30:16.470Z,15.10
2022-09-16T02:31:24.616Z,15.10
2022-09-16T02:32:29.047Z,15.20
2022-09-16T02:33:37.848Z,15.10
2022-09-16T02:34:43.521Z,15.10
2022-09-16T02:35:49.459Z,15.10
2022-09-16T02:36:56.509Z,15.10
2022-09-16T02:38:02.725Z,15.00
2022-09-16T02:39:09.256Z,14.90
2022-09-16T02:40:17.256Z,15.00
2022-09-16T02:41:19.698Z,14.90
2022-09-16T02:42:22.841Z,14.90
2022-09-16T02:43:25.997Z,14.90
2022-09-16T02:44:29.109Z,14.90
2022-09-16T02:45:42.414Z,14.90
2022-09-16T02:46:57.455Z,14.90
2022-09-16T02:48:05.007Z,14.80
2022-09-16T02:49:15.768Z,14.80
2022-09-16T02:50:25.236Z,14.80
2022-09-16T02:51:35.941Z,14.80
2022-09-16T02:52:44.100Z,14.90
2022-09-16T02:53:53.024Z,14.80
2022-09-16T02:55:03.165Z,14.80
2022-09-16T02:56:14.545Z,14.80
2022-09-16T02:57:17.849Z,14.80
2022-09-16T02:58:19.941Z,14.80
2022-09-16T02:59:25.251Z,14.80
2022-09-16T03:00:28.806Z,14.70
2022-09-16T03:01:34.252Z,14.70
2022-09-16T03:02:36.493Z,14.70
2022-09-16T03:03:39.527Z,14.70
2022-09-16T03:04:42.788Z,14.70
2022-09-16T03:06:08.185Z,14.80
2022-09-16T03:07:12.765Z,14.70
2022-09-16T03:08:14.689Z,14.70
2022-09-16T03:09:19.109Z,14.70
2022-09-16T03:10:23.553Z,14.70
2022-09-16T03:11:40.342Z,14.70
2022-09-16T03:12:58.806Z,14.70
2022-09-16T03:14:14.305Z,14.80
2022-09-16T03:15:29.755Z,14.70
2022-09-16T03:16:42.677Z,14.80
2022-09-16T03:18:03.436Z,14.80
2022-09-16T03:19:18.640Z,14.70
2022-09-16T03:20:30.614Z,14.80
2022-09-16T03:21:40.974Z,14.80
2022-09-16T03:22:49.829Z,14.70
2022-09-16T03:24:03.121Z,14.70
2022-09-16T03:25:16.422Z,14.70
2022-09-16T03:26:33.324Z,14.70
2022-09-16T03:27:41.106Z,14.70
2022-09-16T03:28:54.759Z,14.70
2022-09-16T03:30:02.279Z,14.70
2022-09-16T03:31:08.269Z,14.70
2022-09-16T03:32:17.679Z,14.70
2022-09-16T03:33:27.934Z,14.70
2022-09-16T03:34:34.367Z,14.70
2022-09-16T03:35:44.118Z,14.70
2022-09-16T03:36:52.668Z,14.60
2022-09-16T03:37:55.941Z,14.60
2022-09-16T03:39:01.432Z,14.60
2022-09-16T03:40:08.197Z,14.60
2022-09-16T03:41:12.413Z,14.60
2022-09-16T03:42:14.348Z,14.60
2022-09-16T03:43:18.282Z,14.60
2022-09-16T03:44:20.209Z,14.70
2022-09-16T03:45:23.622Z,14.80
2022-09-16T03:46:28.730Z,14.70
2022-09-16T03:47:31.710Z,14.70
2022-09-16T03:48:33.652Z,14.70
2022-09-16T03:49:37.438Z,14.70
2022-09-16T03:50:41.465Z,14.70
2022-09-16T03:51:44.374Z,14.70
2022-09-16T03:52:46.394Z,14.70
2022-09-16T03:53:49.318Z,14.70
2022-09-16T03:54:51.272Z,14.70
2022-09-16T03:55:54.232Z,14.80
2022-09-16T03:56:56.126Z,14.80
2022-09-16T03:57:59.035Z,14.80
2022-09-16T04:00:05.137Z,14.80
2022-09-16T04:02:10.377Z,14.90
2022-09-16T04:03:13.293Z,14.90
2022-09-16T04:05:18.729Z,14.80
2022-09-16T04:06:21.999Z,14.90
2022-09-16T04:07:24.930Z,14.80
2022-09-16T04:08:26.838Z,14.80
2022-09-16T04:09:29.906Z,14.90
2022-09-16T04:10:34.796Z,14.90
2022-09-16T04:11:36.777Z,14.90
2022-09-16T04:12:39.698Z,14.80
2022-09-16T04:13:41.954Z,14.90
2022-09-16T04:14:44.861Z,14.90
2022-09-16T04:15:46.882Z,14.90
2022-09-16T04:16:49.870Z,14.90
2022-09-16T04:17:51.831Z,14.90
2022-09-16T04:18:55.537Z,14.80
2022-09-16T04:19:57.450Z,14.80
2022-09-16T04:21:01.531Z,14.80
2022-09-16T04:22:04.834Z,14.80
2022-09-16T04:23:07.741Z,14.80
2022-09-16T04:24:13.090Z,14.80
2022-09-16T04:25:16.466Z,14.80
2022-09-16T04:26:18.656Z,14.80
2022-09-16T04:27:21.898Z,14.80
2022-09-16T04:28:23.941Z,14.80
2022-09-16T04:29:26.965Z,14.80
2022-09-16T04:31:32.108Z,14.90
2022-09-16T04:32:34.339Z,14.80
2022-09-16T04:33:37.494Z,14.80
2022-09-16T04:34:39.438Z,14.90
2022-09-16T04:35:42.385Z,14.90
2022-09-16T04:36:44.321Z,14.90
2022-09-16T04:37:48.667Z,14.90
2022-09-16T04:38:50.635Z,14.90
2022-09-16T04:39:53.644Z,14.90
2022-09-16T04:41:01.032Z,14.90
2022-09-16T04:42:05.379Z,14.90
2022-09-16T04:43:07.301Z,14.90
2022-09-16T04:44:12.099Z,14.90
2022-09-16T04:45:14.055Z,14.90
2022-09-16T04:47:19.309Z,14.90
2022-09-16T04:48:22.233Z,14.90
2022-09-16T04:50:27.729Z,14.90
2022-09-16T04:51:33.517Z,14.90
2022-09-16T04:52:35.586Z,14.90
2022-09-16T04:53:41.301Z,14.90
2022-09-16T04:54:44.274Z,14.90
2022-09-16T04:55:46.746Z,14.90
2022-09-16T04:56:49.692Z,15.00
2022-09-16T04:57:52.444Z,14.90
2022-09-16T04:58:57.369Z,14.90
2022-09-16T04:59:59.401Z,14.90
2022-09-16T05:01:07.580Z,14.80
2022-09-16T05:02:10.553Z,14.80
2022-09-16T05:03:12.478Z,14.90
2022-09-16T05:04:15.425Z,14.80
2022-09-16T05:05:17.337Z,14.80
2022-09-16T05:06:22.289Z,14.90
2022-09-16T05:07:24.202Z,14.80
2022-09-16T05:08:27.189Z,14.80
2022-09-16T05:09:31.530Z,14.80
2022-09-16T05:11:38.758Z,14.80
2022-09-16T05:13:44.032Z,14.90
2022-09-16T05:15:51.217Z,15.00
2022-09-16T05:16:53.791Z,14.90
2022-09-16T05:17:56.717Z,15.00
2022-09-16T05:19:00.085Z,14.90
2022-09-16T05:20:03.810Z,14.90
2022-09-16T05:21:07.675Z,14.90
2022-09-16T05:22:10.988Z,14.90
2022-09-16T05:23:12.933Z,14.90
2022-09-16T05:24:16.112Z,14.90
2022-09-16T05:25:21.941Z,14.90
2022-09-16T05:26:26.744Z,14.90
2022-09-16T05:27:31.324Z,14.90
2022-09-16T05:28:34.438Z,15.00
2022-09-16T05:29:36.349Z,15.00
2022-09-16T05:30:39.311Z,15.00
2022-09-16T05:31:42.911Z,14.90
2022-09-16T05:32:45.871Z,15.00
2022-09-16T05:33:54.910Z,15.00
2022-09-16T05:36:04.710Z,14.90
2022-09-16T05:37:07.634Z,15.00
2022-09-16T05:38:10.026Z,15.00
2022-09-16T05:39:23.271Z,15.00
2022-09-16T05:40:27.840Z,15.00
2022-09-16T05:41:30.772Z,15.00
2022-09-16T05:42:33.770Z,15.00
2022-09-16T05:43:36.174Z,15.00
2022-09-16T05:44:39.402Z,15.00
2022-09-16T05:45:41.366Z,15.00
2022-09-16T05:46:44.527Z,15.00
2022-09-16T05:47:47.981Z,15.00
2022-09-16T05:48:51.565Z,15.00
2022-09-16T05:49:55.164Z,15.10
2022-09-16T05:50:59.046Z,15.00
2022-09-16T05:52:02.526Z,15.00
2022-09-16T05:53:04.425Z,15.00
2022-09-16T05:54:07.698Z,15.00
2022-09-16T05:55:09.844Z,15.00
2022-09-16T05:56:16.023Z,15.10
2022-09-16T05:57:18.953Z,15.00
2022-09-16T05:58:20.898Z,15.00
2022-09-16T05:59:24.561Z,15.00
2022-09-16T06:01:31.491Z,15.00
2022-09-16T06:02:33.529Z,15.00
2022-09-16T06:03:38.549Z,15.10
2022-09-16T06:04:40.489Z,15.10
2022-09-16T06:05:45.809Z,15.10
2022-09-16T06:06:48.987Z,15.10
2022-09-16T06:07:50.910Z,15.10
2022-09-16T06:08:54.934Z,15.20
2022-09-16T06:09:56.830Z,15.10
2022-09-16T06:11:02.606Z,15.10
2022-09-16T06:12:07.304Z,15.10
2022-09-16T06:14:14.016Z,15.10
2022-09-16T06:15:16.049Z,15.10
2022-09-16T06:16:19.137Z,15.20
2022-09-16T06:17:21.249Z,15.20
2022-09-16T06:18:26.489Z,15.20
2022-09-16T06:19:28.758Z,15.20
2022-09-16T06:20:31.698Z,15.10
2022-09-16T06:21:34.621Z,15.10
2022-09-16T06:22:36.562Z,15.10
2022-09-16T06:23:40.222Z,15.10
2022-09-16T06:24:43.130Z,15.10
2022-09-16T06:25:45.318Z,15.10
2022-09-16T06:26:49.378Z,15.20
2022-09-16T06:27:52.911Z,15.10
2022-09-16T06:28:56.501Z,15.20
2022-09-16T06:31:07.399Z,15.10
2022-09-16T06:32:10.351Z,15.10
2022-09-16T06:33:12.848Z,15.10
2022-09-16T06:34:18.468Z,15.10
2022-09-16T06:36:25.774Z,15.10
2022-09-16T06:37:27.703Z,15.10
2022-09-16T06:38:30.629Z,15.10
2022-09-16T06:39:33.590Z,15.10
2022-09-16T06:40:35.606Z,15.10
2022-09-16T06:41:38.526Z,15.10
2022-09-16T06:42:41.459Z,15.10
2022-09-16T06:43:45.234Z,15.10
2022-09-16T06:44:48.132Z,15.10
2022-09-16T06:45:50.103Z,15.10
2022-09-16T06:46:53.258Z,15.10
2022-09-16T06:47:59.976Z,15.20
2022-09-16T06:49:05.730Z,15.20
2022-09-16T06:50:10.217Z,15.20
2022-09-16T06:51:14.694Z,15.10
2022-09-16T06:52:17.663Z,15.10
2022-09-16T06:53:19.594Z,15.10
2022-09-16T06:54:22.508Z,15.10
2022-09-16T06:55:24.477Z,15.10
2022-09-16T06:56:27.575Z,15.10
2022-09-16T06:57:30.713Z,15.10
2022-09-16T06:58:35.238Z,15.10
2022-09-16T06:59:38.654Z,15.10
2022-09-16T07:00:43.134Z,15.10
2022-09-16T07:01:46.104Z,15.10
2022-09-16T07:02:48.216Z,15.20
2022-09-16T07:03:53.031Z,15.20
2022-09-16T07:04:55.161Z,15.20
2022-09-16T07:05:58.657Z,15.20
2022-09-16T07:07:10.293Z,15.20
2022-09-16T07:08:12.556Z,15.20
2022-09-16T07:09:15.557Z,15.30
2022-09-16T07:10:17.461Z,15.30
2022-09-16T07:11:21.780Z,15.40
2022-09-16T07:12:24.763Z,15.30
2022-09-16T07:13:27.237Z,15.40
2022-09-16T07:14:32.737Z,15.30
2022-09-16T07:15:46.265Z,15.40
2022-09-16T07:16:59.011Z,15.30
2022-09-16T07:18:00.955Z,15.30
2022-09-16T07:19:04.218Z,15.30
2022-09-16T07:20:08.354Z,15.30
2022-09-16T07:21:12.541Z,15.30
2022-09-16T07:22:15.469Z,15.40
2022-09-16T07:23:17.389Z,15.30
2022-09-16T07:24:20.570Z,15.40
2022-09-16T07:25:22.527Z,15.30
2022-09-16T07:26:27.434Z,15.30
2022-09-16T07:27:31.141Z,15.30
2022-09-16T07:28:34.645Z,15.30
2022-09-16T07:29:37.745Z,15.30
2022-09-16T07:30:41.115Z,15.30
2022-09-16T07:31:44.344Z,15.40
2022-09-16T07:32:46.248Z,15.50
2022-09-16T07:33:50.862Z,15.50
2022-09-16T07:34:53.925Z,15.40
2022-09-16T07:36:00.171Z,15.50
2022-09-16T07:37:03.093Z,15.50
2022-09-16T07:38:05.985Z,15.50
2022-09-16T07:39:09.117Z,15.40
2022-09-16T07:40:13.441Z,15.40
2022-09-16T07:41:19.738Z,15.40
2022-09-16T07:42:22.737Z,15.50
2022-09-16T07:43:24.675Z,15.50
2022-09-16T07:44:27.821Z,15.50
2022-09-16T07:45:29.909Z,15.50
2022-09-16T07:46:36.924Z,15.50
2022-09-16T07:47:39.835Z,15.50
2022-09-16T07:48:41.763Z,15.60
2022-09-16T07:49:44.677Z,15.60
2022-09-16T07:50:55.850Z,15.60
2022-09-16T07:51:58.755Z,15.70
2022-09-16T07:53:00.765Z,15.70
2022-09-16T07:54:06.709Z,15.70
2022-09-16T07:55:10.089Z,15.70
2022-09-16T07:56:14.662Z,15.70
2022-09-16T07:57:18.370Z,15.60
2022-09-16T07:58:20.648Z,15.60
2022-09-16T07:59:23.555Z,15.60
2022-09-16T08:00:26.886Z,15.60
2022-09-16T08:01:31.130Z,15.60
2022-09-16T08:02:34.654Z,15.50
2022-09-16T08:03:39.488Z,15.50
2022-09-16T08:04:42.454Z,15.60
2022-09-16T08:05:44.553Z,15.50
2022-09-16T08:06:47.629Z,15.40
2022-09-16T08:07:49.562Z,15.40
2022-09-16T08:08:53.655Z,15.40
2022-09-16T08:09:56.844Z,15.40
2022-09-16T08:11:01.022Z,15.40
2022-09-16T08:12:05.995Z,15.40
2022-09-16T08:13:08.873Z,15.40
2022-09-16T08:14:11.789Z,15.40
2022-09-16T08:15:14.898Z,15.50
2022-09-16T08:16:20.123Z,15.40
2022-09-16T08:17:23.077Z,15.40
2022-09-16T08:18:26.341Z,15.40
2022-09-16T08:19:29.353Z,15.40
2022-09-16T08:20:31.273Z,15.40
2022-09-16T08:21:34.198Z,15.40
2022-09-16T08:22:36.207Z,15.40
2022-09-16T08:23:40.021Z,15.50
2022-09-16T08:24:42.970Z,15.50
2022-09-16T08:25:45.496Z,15.50
2022-09-16T08:26:48.495Z,15.50
2022-09-16T08:27:54.069Z,15.50
2022-09-16T08:29:08.264Z,15.50
2022-09-16T08:30:12.640Z,15.50
2022-09-16T08:31:15.094Z,15.50
2022-09-16T08:32:18.081Z,15.60
2022-09-16T08:33:23.031Z,15.50
2022-09-16T08:34:27.397Z,15.50
2022-09-16T08:35:29.342Z,15.60
2022-09-16T08:36:33.179Z,15.50
2022-09-16T08:37:35.937Z,15.50
2022-09-16T08:38:38.879Z,15.60
2022-09-16T08:40:46.853Z,15.70
2022-09-16T08:42:03.180Z,15.60
2022-09-16T08:43:17.029Z,15.60
2022-09-16T08:44:31.598Z,15.60
2022-09-16T08:45:43.825Z,15.60
2022-09-16T08:46:52.877Z,15.60
2022-09-16T08:48:16.017Z,15.60
2022-09-16T08:49:28.216Z,15.60
2022-09-16T08:50:37.616Z,15.60
2022-09-16T08:51:40.851Z,15.40
2022-09-16T08:52:44.167Z,15.50
2022-09-16T08:53:50.783Z,15.40
2022-09-16T08:54:57.469Z,15.40
2022-09-16T08:56:04.250Z,15.40
2022-09-16T08:57:11.689Z,15.40
2022-09-16T08:58:17.582Z,15.40
2022-09-16T08:59:26.505Z,15.40
2022-09-16T09:00:28.813Z,15.40
2022-09-16T09:01:42.891Z,15.30
2022-09-16T09:02:51.815Z,15.40
2022-09-16T09:03:55.250Z,15.40
2022-09-16T09:04:59.400Z,15.30
2022-09-16T09:06:06.441Z,15.40
2022-09-16T09:07:18.876Z,15.40
2022-09-16T09:08:35.161Z,15.50
2022-09-16T09:09:50.834Z,15.50
2022-09-16T09:10:57.781Z,15.50
2022-09-16T09:12:06.373Z,15.40
2022-09-16T09:13:16.322Z,15.50
2022-09-16T09:14:29.886Z,15.60
2022-09-16T09:15:40.436Z,15.60
2022-09-16T09:16:48.963Z,15.50
2022-09-16T09:17:59.826Z,15.50
2022-09-16T09:19:13.832Z,15.50
2022-09-16T09:20:28.465Z,15.60
2022-09-16T09:21:41.271Z,15.50
2022-09-16T09:23:02.645Z,15.50
2022-09-16T09:24:23.048Z,15.50
2022-09-16T09:25:32.497Z,15.50
2022-09-16T09:26:43.733Z,15.40
2022-09-16T09:27:59.964Z,15.50
2022-09-16T09:29:22.154Z,15.50
2022-09-16T09:30:26.109Z,15.50
2022-09-16T09:31:40.945Z,15.50
2022-09-16T09:32:59.117Z,15.50
2022-09-16T09:34:08.372Z,15.50
2022-09-16T09:35:24.860Z,15.50
2022-09-16T09:36:51.323Z,15.40
2022-09-16T09:38:13.135Z,15.40
2022-09-16T09:39:29.697Z,15.40
2022-09-16T09:40:36.827Z,15.40
2022-09-16T09:41:42.789Z,15.40
2022-09-16T09:42:51.585Z,15.40
2022-09-16T09:43:57.133Z,15.40
2022-09-16T09:45:04.812Z,15.30
2022-09-16T09:46:12.432Z,15.30
2022-09-16T09:47:20.158Z,15.30
2022-09-16T09:48:26.360Z,15.40
2022-09-16T09:49:31.628Z,15.50
2022-09-16T09:50:41.530Z,15.40
2022-09-16T09:51:51.626Z,15.40
2022-09-16T09:53:03.829Z,15.30
2022-09-16T09:54:29.654Z,15.40
2022-09-16T09:55:35.750Z,15.40
2022-09-16T09:56:44.478Z,15.30
2022-09-16T09:58:02.781Z,15.30
2022-09-16T09:59:28.948Z,15.40
2022-09-16T10:00:31.259Z,15.50
2022-09-16T10:01:34.158Z,15.40
2022-09-16T10:02:41.327Z,15.40
2022-09-16T10:03:46.542Z,15.40
2022-09-16T10:04:49.165Z,15.50
2022-09-16T10:05:52.336Z,15.50
2022-09-16T10:06:56.902Z,15.50
2022-09-16T10:08:03.207Z,15.50
2022-09-16T10:09:06.138Z,15.50
2022-09-16T10:10:17.825Z,15.50
2022-09-16T10:11:21.902Z,15.50
2022-09-16T10:12:30.417Z,15.50
2022-09-16T10:13:33.358Z,15.60
2022-09-16T10:14:37.895Z,15.60
2022-09-16T10:15:41.815Z,15.60
2022-09-16T10:16:48.242Z,15.60
2022-09-16T10:17:52.665Z,15.50
2022-09-16T10:18:59.875Z,15.50
2022-09-16T10:20:06.059Z,15.50
2022-09-16T10:21:12.727Z,15.50
2022-09-16T10:22:23.540Z,15.50
2022-09-16T10:23:30.064Z,15.40
2022-09-16T10:24:36.045Z,15.40
2022-09-16T10:25:38.224Z,15.40
2022-09-16T10:26:41.913Z,15.40
2022-09-16T10:27:56.155Z,15.40
2022-09-16T10:29:00.755Z,15.50
2022-09-16T10:30:12.947Z,15.50
2022-09-16T10:31:14.973Z,15.50
2022-09-16T10:32:20.458Z,15.50
2022-09-16T10:33:25.648Z,15.50
2022-09-16T10:34:33.346Z,15.50
2022-09-16T10:35:38.431Z,15.40
2022-09-16T10:36:40.419Z,15.40
2022-09-16T10:37:51.861Z,15.50
2022-09-16T10:39:02.274Z,15.50
2022-09-16T10:40:18.360Z,15.50
2022-09-16T10:41:26.260Z,15.50
2022-09-16T10:42:30.346Z,15.50
2022-09-16T10:43:32.393Z,15.50
2022-09-16T10:44:37.989Z,15.50
2022-09-16T10:45:47.108Z,15.50
2022-09-16T10:46:59.417Z,15.50
2022-09-16T10:48:07.142Z,15.40
2022-09-16T10:49:13.149Z,15.50
2022-09-16T10:50:17.990Z,15.50
2022-09-16T10:51:26.662Z,15.50
2022-09-16T10:52:31.577Z,15.50
2022-09-16T10:53:39.464Z,15.50
2022-09-16T10:54:46.401Z,15.50
2022-09-16T10:55:57.996Z,15.50
2022-09-16T10:57:00.904Z,15.50
2022-09-16T10:58:14.440Z,15.60
2022-09-16T10:59:16.354Z,15.50
2022-09-16T11:00:21.146Z,15.50
2022-09-16T11:01:36.883Z,15.50
2022-09-16T11:03:09.357Z,15.50
2022-09-16T11:04:33.990Z,15.50
2022-09-16T11:05:44.849Z,15.60
2022-09-16T11:07:01.252Z,15.60
2022-09-16T11:08:12.499Z,15.60
2022-09-16T11:09:23.338Z,15.60
2022-09-16T11:10:35.658Z,15.60
2022-09-16T11:11:54.396Z,15.50
2022-09-16T11:13:26.400Z,15.50
2022-09-16T11:14:39.893Z,15.50
2022-09-16T11:15:56.034Z,15.60
2022-09-16T11:17:15.578Z,15.60
2022-09-16T11:18:32.449Z,15.50
2022-09-16T11:19:47.906Z,15.50
2022-09-16T11:21:06.274Z,15.50
2022-09-16T11:22:18.009Z,15.50
2022-09-16T11:23:37.092Z,15.50
2022-09-16T11:25:00.079Z,15.50
2022-09-16T11:26:13.040Z,15.60
2022-09-16T11:27:28.740Z,15.50
2022-09-16T11:28:47.709Z,15.50
2022-09-16T11:30:03.559Z,15.40
2022-09-16T11:31:17.055Z,15.40
2022-09-16T11:32:29.563Z,15.40
2022-09-16T11:33:42.036Z,15.40
2022-09-16T11:35:00.421Z,15.50
2022-09-16T11:36:34.280Z,15.50
2022-09-16T11:37:43.716Z,15.60
2022-09-16T11:38:56.775Z,15.60
2022-09-16T11:40:16.613Z,15.60
2022-09-16T11:41:28.771Z,15.50
2022-09-16T11:42:34.041Z,15.50
2022-09-16T11:43:53.218Z,15.60
2022-09-16T11:45:04.936Z,15.50
2022-09-16T11:46:13.428Z,15.50
2022-09-16T11:47:32.065Z,15.50
2022-09-16T11:48:47.930Z,15.50
2022-09-16T11:50:17.965Z,15.50
2022-09-16T11:51:33.589Z,15.50
2022-09-16T11:53:03.183Z,15.50
2022-09-16T11:54:20.318Z,15.50
2022-09-16T11:55:39.410Z,15.40
2022-09-16T11:56:47.757Z,15.50
2022-09-16T11:57:54.740Z,15.40
2022-09-16T11:59:01.750Z,15.50
2022-09-16T12:00:06.729Z,15.40
2022-09-16T12:02:29.644Z,15.40
2022-09-16T12:03:38.366Z,15.40
2022-09-16T12:04:45.446Z,15.40
2022-09-16T12:05:54.502Z,15.40
2022-09-16T12:07:04.349Z,15.30
2022-09-16T12:08:13.524Z,15.30
2022-09-16T12:09:23.730Z,15.30
2022-09-16T12:10:31.070Z,15.40
2022-09-16T12:11:39.610Z,15.30
2022-09-16T12:12:48.071Z,15.30
2022-09-16T12:14:05.524Z,15.30
2022-09-16T12:15:18.757Z,15.20
2022-09-16T12:16:29.409Z,15.30
2022-09-16T12:17:37.909Z,15.20
2022-09-16T12:18:43.020Z,15.20
2022-09-16T12:19:51.297Z,15.20
2022-09-16T12:22:42.151Z,15.20
2022-09-16T12:23:48.810Z,15.20
2022-09-16T12:24:59.344Z,15.20
2022-09-16T12:26:09.462Z,15.20
2022-09-16T12:27:34.033Z,15.20
2022-09-16T12:28:42.933Z,15.20
2022-09-16T12:29:52.494Z,15.20
2022-09-16T12:31:09.165Z,15.20
2022-09-16T12:32:14.966Z,15.20
2022-09-16T12:33:22.798Z,15.20
2022-09-16T12:34:28.440Z,15.30
2022-09-16T12:35:35.502Z,15.30
2022-09-16T12:36:43.113Z,15.30
2022-09-16T12:37:49.650Z,15.40
2022-09-16T12:38:51.678Z,15.30
2022-09-16T12:39:54.746Z,15.30
2022-09-16T12:41:18.502Z,15.30
2022-09-16T12:42:52.837Z,15.40
2022-09-16T12:44:34.137Z,15.40
2022-09-16T12:46:04.857Z,15.40
2022-09-16T12:47:38.748Z,15.30
2022-09-16T12:49:09.690Z,15.30
2022-09-16T12:50:46.399Z,15.30
2022-09-16T12:52:13.287Z,15.30
2022-09-16T12:53:46.295Z,15.40
2022-09-16T12:55:15.814Z,15.40
2022-09-16T12:56:42.087Z,15.40
2022-09-16T12:58:03.353Z,15.40
2022-09-16T12:59:49.746Z,15.50
2022-09-16T13:01:05.010Z,15.60
2022-09-16T13:02:13.903Z,15.60
2022-09-16T13:03:20.025Z,15.60
2022-09-16T13:04:26.367Z,15.60
2022-09-16T13:05:33.126Z,15.60
2022-09-16T13:06:41.767Z,15.50
2022-09-16T13:07:48.528Z,15.50
2022-09-16T13:08:52.133Z,15.50
2022-09-16T13:10:07.002Z,15.50
2022-09-16T13:12:16.146Z,15.50
2022-09-16T13:12:51.925Z,15.40
2022-09-16T13:13:56.863Z,15.40
2022-09-16T13:15:02.573Z,15.30
2022-09-16T13:16:06.819Z,15.30
2022-09-16T13:17:12.458Z,15.30
2022-09-16T13:18:23.382Z,15.30
2022-09-16T13:19:36.943Z,15.20
2022-09-16T13:20:43.406Z,15.20
2022-09-16T13:21:47.085Z,15.30
2022-09-16T13:22:59.726Z,15.30
2022-09-16T13:24:06.056Z,15.40
2022-09-16T13:25:13.033Z,15.30
2022-09-16T13:26:15.073Z,15.30
2022-09-16T13:27:34.416Z,15.30
2022-09-16T13:28:41.654Z,15.40
2022-09-16T13:29:44.678Z,15.40
2022-09-16T13:30:47.719Z,15.40
2022-09-16T13:31:49.876Z,15.40
2022-09-16T13:33:03.656Z,15.50
2022-09-16T13:34:17.157Z,15.40
2022-09-16T13:35:36.444Z,15.40
2022-09-16T13:36:39.410Z,15.50
2022-09-16T13:37:41.341Z,15.40
2022-09-16T13:38:46.899Z,15.50
2022-09-16T13:40:58.881Z,15.50
2022-09-16T13:42:18.009Z,15.50
2022-09-16T13:43:29.681Z,15.40
2022-09-16T13:44:43.385Z,15.40
2022-09-16T13:45:45.661Z,15.40
2022-09-16T13:46:48.602Z,15.40
2022-09-16T13:47:51.413Z,15.40
2022-09-16T13:48:58.546Z,15.30
2022-09-16T13:50:08.682Z,15.30
2022-09-16T13:51:17.542Z,15.40
2022-09-16T13:52:23.089Z,15.40
2022-09-16T13:53:30.033Z,15.40
2022-09-16T13:54:53.487Z,15.40
2022-09-16T13:56:21.418Z,15.40
2022-09-16T13:58:04.420Z,15.30
2022-09-16T13:59:20.730Z,15.30
2022-09-16T14:00:32.337Z,15.40
2022-09-16T14:01:58.778Z,15.40
2022-09-16T14:03:28.068Z,15.40
2022-09-16T14:04:46.633Z,15.40
2022-09-16T14:06:11.221Z,15.50
2022-09-16T14:07:23.563Z,15.40
2022-09-16T14:08:35.659Z,15.40
2022-09-16T14:09:51.485Z,15.40
2022-09-16T14:11:03.017Z,15.40
2022-09-16T14:12:13.569Z,15.40
2022-09-16T14:13:19.574Z,15.30
2022-09-16T14:15:52.339Z,15.40
2022-09-16T14:16:54.787Z,15.30
2022-09-16T14:18:02.045Z,15.30
2022-09-16T14:19:06.434Z,15.30
2022-09-16T14:20:18.686Z,15.30
2022-09-16T14:21:23.668Z,15.30
2022-09-16T14:22:27.986Z,15.40
2022-09-16T14:23:32.962Z,15.50
2022-09-16T14:24:36.675Z,15.50
2022-09-16T14:25:40.805Z,15.50
2022-09-16T14:26:51.865Z,15.50
2022-09-16T14:29:02.959Z,15.60
2022-09-16T14:30:08.065Z,15.60
2022-09-16T14:31:16.926Z,15.60
2022-09-16T14:32:20.294Z,15.60
2022-09-16T14:33:26.862Z,15.60
2022-09-16T14:34:33.022Z,15.50
2022-09-16T14:35:36.000Z,15.50
2022-09-16T14:36:41.049Z,15.50
2022-09-16T14:37:45.133Z,15.60
2022-09-16T14:38:54.969Z,15.60
2022-09-16T14:40:04.782Z,15.70
2022-09-16T14:41:09.285Z,15.70
2022-09-16T14:42:18.635Z,15.70
2022-09-16T14:43:22.768Z,15.70
2022-09-16T14:44:28.705Z,15.70
2022-09-16T14:45:32.074Z,15.60
2022-09-16T14:46:42.053Z,15.60
2022-09-16T14:47:51.507Z,15.60
2022-09-16T14:48:55.088Z,15.50
2022-09-16T14:50:03.362Z,15.50
2022-09-16T14:51:13.603Z,15.50
2022-09-16T14:52:19.949Z,15.60
2022-09-16T14:53:35.428Z,15.60
2022-09-16T14:54:44.469Z,15.60